Time;durP1;ratioP1;P1;durP2;ratioP2;P2;SDS_P1;SDS_P2;PMS_P1;PMS_P2;Temp;Humidity;BMP_temperature;BMP_pressure;BME280_temperature;BME280_humidity;BME280_pressure;Samples;Min_cycle;Max_cycle;Signal;HPM_P1;HPM_P2
2022/07/30 00:00:50;;;;;;;2.20;2.08;;;27.10;49.40;;;;;;5089505;28;20119;-59
2022/07/30 00:03:17;;;;;;;2.45;2.25;;;27.10;49.60;;;;;;5088406;28;20040;-59
2022/07/30 00:05:44;;;;;;;2.58;2.30;;;27.10;49.60;;;;;;5089112;28;20131;-58
2022/07/30 00:08:12;;;;;;;3.17;2.30;;;27.10;49.60;;;;;;5088856;28;20109;-59
2022/07/30 00:10:40;;;;;;;2.17;2.08;;;27.10;49.60;;;;;;5089412;28;20091;-59
2022/07/30 00:13:07;;;;;;;2.67;2.00;;;27.10;49.60;;;;;;5088850;28;20549;-59
2022/07/30 00:15:40;;;;;;;2.15;2.05;;;27.10;49.60;;;;;;5084420;28;20056;-58
2022/07/30 00:18:07;;;;;;;2.22;1.92;;;27.10;49.60;;;;;;5087832;28;20090;-59
2022/07/30 00:20:39;;;;;;;2.47;2.28;;;27.10;49.70;;;;;;5088773;28;20052;-58
2022/07/30 00:23:09;;;;;;;2.03;1.92;;;27.00;49.60;;;;;;5088757;28;20086;-59
2022/07/30 00:25:36;;;;;;;2.33;2.20;;;27.10;49.70;;;;;;5089065;28;20123;-58
2022/07/30 00:28:03;;;;;;;4.13;2.38;;;27.10;49.70;;;;;;5086787;28;20489;-58
2022/07/30 00:30:31;;;;;;;2.50;2.30;;;27.10;49.80;;;;;;5088988;28;20051;-59
2022/07/30 00:32:58;;;;;;;2.75;2.40;;;27.10;49.80;;;;;;5088372;28;20047;-58
2022/07/30 00:35:25;;;;;;;4.78;2.17;;;27.10;49.80;;;;;;5088434;28;20498;-59
2022/07/30 00:37:53;;;;;;;2.30;2.20;;;27.10;49.80;;;;;;5088552;28;20051;-58
2022/07/30 00:40:20;;;;;;;2.53;2.33;;;27.10;49.90;;;;;;5088206;28;20073;-58
2022/07/30 00:42:48;;;;;;;2.60;2.30;;;27.10;49.90;;;;;;5088306;28;20079;-59
2022/07/30 00:45:16;;;;;;;3.42;2.17;;;27.10;49.90;;;;;;5085447;28;20047;-58
2022/07/30 00:47:43;;;;;;;2.17;1.98;;;27.10;49.90;;;;;;5085200;28;20298;-58
2022/07/30 00:50:12;;;;;;;3.03;1.98;;;27.10;49.90;;;;;;5086979;28;20043;-58
2022/07/30 00:52:41;;;;;;;2.45;2.30;;;27.00;49.90;;;;;;5087842;28;20105;-58
2022/07/30 00:55:10;;;;;;;2.45;2.25;;;27.10;49.90;;;;;;5088881;28;20055;-58
2022/07/30 00:57:37;;;;;;;2.08;1.98;;;27.10;50.00;;;;;;5087694;28;20044;-58
2022/07/30 01:00:08;;;;;;;2.58;2.08;;;27.00;49.90;;;;;;5086437;28;20451;-58
2022/07/30 01:02:35;;;;;;;2.72;2.53;;;27.10;49.90;;;;;;5088209;28;20454;-58
2022/07/30 01:05:03;;;;;;;2.60;2.03;;;27.00;49.90;;;;;;5087823;28;20082;-58
2022/07/30 01:07:30;;;;;;;3.25;2.65;;;27.00;49.90;;;;;;5087722;28;20147;-58
2022/07/30 01:09:58;;;;;;;2.40;2.20;;;27.00;49.90;;;;;;5087791;28;20185;-58
2022/07/30 01:12:26;;;;;;;2.20;2.10;;;27.00;49.90;;;;;;5088000;28;20032;-58
2022/07/30 01:14:56;;;;;;;2.47;2.30;;;27.00;49.90;;;;;;5087572;28;20048;-58
2022/07/30 01:17:24;;;;;;;2.50;2.30;;;27.00;50.00;;;;;;5081250;28;20070;-58
2022/07/30 01:19:57;;;;;;;2.55;2.35;;;27.00;50.00;;;;;;5088107;28;20048;-58
2022/07/30 01:22:38;;;;;;;2.50;2.28;;;27.00;50.00;;;;;;5087124;28;20501;-58
2022/07/30 01:25:22;;;;;;;2.15;2.05;;;27.00;50.00;;;;;;5088021;28;20101;-58
2022/07/30 01:27:57;;;;;;;2.20;2.10;;;27.00;50.00;;;;;;5088046;28;20123;-58
2022/07/30 01:30:28;;;;;;;1.95;1.85;;;27.00;50.10;;;;;;5087601;28;20063;-58
2022/07/30 01:32:57;;;;;;;3.13;2.80;;;27.00;50.00;;;;;;5086781;28;20553;-58
2022/07/30 01:35:27;;;;;;;2.25;2.15;;;27.00;50.10;;;;;;5087394;28;20187;-58
2022/07/30 01:37:56;;;;;;;2.38;2.17;;;27.00;50.00;;;;;;5069473;28;20095;-58
2022/07/30 01:40:26;;;;;;;2.42;2.30;;;27.00;50.10;;;;;;5087454;28;20075;-58
2022/07/30 01:42:57;;;;;;;2.10;2.03;;;27.00;50.10;;;;;;5087309;28;20127;-58
2022/07/30 01:45:26;;;;;;;2.25;2.15;;;27.00;50.10;;;;;;5085437;28;20052;-58
2022/07/30 01:47:57;;;;;;;3.55;2.50;;;26.90;50.00;;;;;;5086934;28;20075;-58
2022/07/30 01:50:25;;;;;;;2.08;1.98;;;27.00;50.10;;;;;;5080870;28;20084;-58
2022/07/30 01:52:55;;;;;;;2.63;2.42;;;27.00;50.10;;;;;;5087377;28;20366;-58
2022/07/30 01:55:33;;;;;;;;;;;27.00;50.10;;;;;;5086574;28;20113;-59
2022/07/30 01:58:02;;;;;;;2.58;2.38;;;27.00;50.10;;;;;;5087018;28;20438;-58
2022/07/30 02:00:32;;;;;;;2.70;2.50;;;27.00;50.20;;;;;;5086873;28;20052;-58
2022/07/30 02:02:59;;;;;;;2.60;2.40;;;27.00;50.20;;;;;;5086373;28;20079;-58
2022/07/30 02:05:29;;;;;;;2.40;2.20;;;27.00;50.80;;;;;;5085213;28;20051;-58
2022/07/30 02:08:17;;;;;;;3.50;2.15;;;27.00;50.20;;;;;;5068024;28;20439;-58
2022/07/30 02:10:51;;;;;;;2.58;2.38;;;27.00;50.20;;;;;;5084991;28;20455;-58
2022/07/30 02:13:27;;;;;;;2.40;2.30;;;27.00;50.20;;;;;;5084287;28;20249;-58
2022/07/30 02:16:15;;;;;;;2.47;2.30;;;27.00;50.30;;;;;;5085630;28;20051;-58
2022/07/30 02:19:01;;;;;;;2.47;2.28;;;26.90;50.20;;;;;;5085402;28;20048;-58
2022/07/30 02:21:36;;;;;;;2.22;2.13;;;27.00;50.30;;;;;;5080351;28;20040;-58
2022/07/30 02:24:07;;;;;;;2.38;2.25;;;27.00;50.20;;;;;;5085281;28;20044;-58
2022/07/30 02:26:37;;;;;;;2.20;2.10;;;27.00;50.30;;;;;;5085635;28;20097;-58
2022/07/30 02:29:07;;;;;;;4.43;2.35;;;27.00;50.30;;;;;;5084743;28;20097;-58
2022/07/30 02:31:39;;;;;;;2.63;2.42;;;27.00;50.20;;;;;;5085626;28;20135;-59
2022/07/30 02:34:09;;;;;;;2.65;2.45;;;27.00;50.30;;;;;;5085306;28;20540;-58
2022/07/30 02:36:40;;;;;;;2.78;2.35;;;27.00;50.20;;;;;;5085152;28;20387;-59
2022/07/30 02:39:09;;;;;;;2.65;2.30;;;26.90;50.20;;;;;;5085552;28;20059;-58
2022/07/30 02:41:38;;;;;;;3.45;2.28;;;27.00;50.30;;;;;;5085194;28;20112;-58
2022/07/30 02:44:07;;;;;;;2.00;1.90;;;26.90;50.20;;;;;;5085756;28;20134;-59
2022/07/30 02:46:36;;;;;;;2.47;2.38;;;27.00;50.20;;;;;;5085164;28;20478;-59
2022/07/30 02:49:05;;;;;;;2.50;2.33;;;27.00;50.20;;;;;;5085191;28;20076;-59
2022/07/30 02:51:34;;;;;;;2.43;2.33;;;27.00;50.20;;;;;;5080114;28;20044;-59
2022/07/30 02:54:02;;;;;;;2.70;2.50;;;27.00;50.20;;;;;;5083293;28;20316;-58
2022/07/30 02:56:30;;;;;;;2.88;2.33;;;27.00;50.30;;;;;;5085496;28;20130;-58
2022/07/30 02:59:00;;;;;;;2.50;2.28;;;26.90;50.20;;;;;;5085008;28;20500;-58
2022/07/30 03:01:30;;;;;;;2.58;2.40;;;26.90;50.20;;;;;;5084866;28;20454;-58
2022/07/30 03:03:58;;;;;;;2.15;2.05;;;26.90;50.20;;;;;;5085091;28;20532;-58
2022/07/30 03:06:26;;;;;;;2.28;2.10;;;26.90;50.20;;;;;;5084988;28;20036;-58
2022/07/30 03:08:55;;;;;;;2.15;2.05;;;26.90;50.30;;;;;;5085167;28;20048;-58
2022/07/30 03:11:24;;;;;;;2.58;2.38;;;26.90;50.30;;;;;;5084721;28;20048;-58
2022/07/30 03:13:51;;;;;;;2.50;2.40;;;26.90;50.30;;;;;;5084872;28;20094;-58
2022/07/30 03:16:21;;;;;;;2.28;2.08;;;26.90;50.30;;;;;;5084856;28;20048;-58
2022/07/30 03:18:49;;;;;;;2.42;2.22;;;26.90;50.30;;;;;;5084431;28;20044;-58
2022/07/30 03:21:19;;;;;;;2.30;2.20;;;26.90;50.90;;;;;;5084825;28;20040;-58
2022/07/30 03:23:48;;;;;;;2.40;2.20;;;26.90;50.30;;;;;;5080256;28;20367;-58
2022/07/30 03:26:20;;;;;;;3.10;2.25;;;26.90;50.30;;;;;;5084981;28;20040;-58
2022/07/30 03:28:48;;;;;;;2.28;2.08;;;26.90;50.30;;;;;;5083380;28;20506;-58
2022/07/30 03:31:16;;;;;;;2.70;2.50;;;26.90;50.30;;;;;;5084325;28;20516;-58
2022/07/30 03:33:45;;;;;;;2.50;2.30;;;26.90;50.30;;;;;;5084889;28;20516;-58
2022/07/30 03:36:14;;;;;;;2.08;1.98;;;26.90;50.30;;;;;;5084498;28;20291;-59
2022/07/30 03:38:42;;;;;;;2.38;2.17;;;26.90;50.30;;;;;;5085225;28;20523;-58
2022/07/30 03:41:10;;;;;;;2.30;2.10;;;26.90;50.30;;;;;;5084681;28;20400;-57
2022/07/30 03:43:39;;;;;;;2.00;1.90;;;26.90;50.30;;;;;;5085783;28;20511;-60
2022/07/30 03:46:08;;;;;;;2.47;2.28;;;26.90;50.30;;;;;;5085894;28;20135;-57
2022/07/30 03:48:37;;;;;;;2.63;2.42;;;26.90;50.30;;;;;;5067254;28;20036;-58
2022/07/30 03:51:06;;;;;;;2.63;2.42;;;26.90;50.30;;;;;;5085380;28;20523;-58
2022/07/30 03:53:33;;;;;;;2.38;2.25;;;26.90;50.30;;;;;;5086076;28;20488;-57
2022/07/30 03:56:01;;;;;;;2.20;2.00;;;26.90;50.30;;;;;;5083304;28;20127;-57
2022/07/30 03:58:30;;;;;;;2.03;1.90;;;26.90;50.30;;;;;;5089658;28;20082;-58
2022/07/30 04:01:02;;;;;;;2.75;2.55;;;27.00;50.30;;;;;;5089426;28;20245;-57
2022/07/30 04:03:32;;;;;;;1.98;1.88;;;27.00;50.30;;;;;;5089278;28;20044;-57
2022/07/30 04:06:00;;;;;;;2.40;2.20;;;27.00;50.30;;;;;;5088856;28;20102;-58
2022/07/30 04:08:27;;;;;;;3.25;2.67;;;27.00;50.30;;;;;;5089282;28;20105;-58
2022/07/30 04:10:55;;;;;;;2.38;2.20;;;27.00;50.20;;;;;;5088776;28;20073;-57
2022/07/30 04:13:22;;;;;;;2.75;2.50;;;27.00;50.20;;;;;;5088983;28;20081;-60
2022/07/30 04:16:11;;;;;;;2.30;2.10;;;27.00;50.10;;;;;;5089254;28;20098;-60
2022/07/30 04:19:00;;;;;;;2.20;2.05;;;27.00;50.10;;;;;;5088544;28;20158;-58
2022/07/30 04:21:28;;;;;;;3.55;2.05;;;27.10;50.10;;;;;;5087623;28;20055;-58
2022/07/30 04:23:58;;;;;;;2.28;2.15;;;27.00;50.00;;;;;;5087823;28;20044;-58
2022/07/30 04:26:32;;;;;;;2.20;2.10;;;27.10;50.00;;;;;;5083323;28;20061;-57
2022/07/30 04:29:01;;;;;;;2.50;2.30;;;27.10;50.00;;;;;;5088522;28;20044;-57
2022/07/30 04:31:34;;;;;;;2.20;2.10;;;27.10;49.90;;;;;;5088027;28;20048;-58
2022/07/30 04:34:06;;;;;;;2.35;2.20;;;27.10;49.90;;;;;;5089194;28;20286;-57
2022/07/30 04:36:37;;;;;;;2.72;2.53;;;27.20;49.90;;;;;;5088075;28;20098;-57
2022/07/30 04:39:04;;;;;;;2.65;2.45;;;27.10;49.70;;;;;;5088531;28;20075;-57
2022/07/30 04:41:32;;;;;;;2.58;2.38;;;27.20;49.90;;;;;;5087603;28;20539;-58
2022/07/30 04:44:17;;;;;;;2.63;2.47;;;27.20;49.70;;;;;;5088481;28;20044;-58
2022/07/30 04:46:45;;;;;;;2.35;2.17;;;27.20;49.70;;;;;;5088890;28;20142;-57
2022/07/30 04:49:14;;;;;;;2.30;2.17;;;27.30;49.70;;;;;;5088507;28;20421;-58
2022/07/30 04:51:43;;;;;;;2.33;2.20;;;27.30;49.60;;;;;;5088249;28;20055;-58
2022/07/30 04:54:13;;;;;;;2.83;2.63;;;27.30;49.50;;;;;;5087731;28;20040;-58
2022/07/30 04:56:46;;;;;;;3.22;2.30;;;27.40;49.50;;;;;;5086486;28;20292;-58
2022/07/30 04:59:23;;;;;;;2.67;2.33;;;27.30;49.40;;;;;;5085873;28;20499;-57
2022/07/30 05:01:54;;;;;;;2.42;2.22;;;27.40;49.40;;;;;;5086577;28;20048;-57
2022/07/30 05:04:23;;;;;;;3.13;2.83;;;27.40;49.30;;;;;;5088165;28;20052;-57
2022/07/30 05:06:52;;;;;;;2.60;2.40;;;27.40;49.30;;;;;;5086269;28;20502;-57
2022/07/30 05:09:21;;;;;;;2.70;2.50;;;27.40;49.50;;;;;;5088164;28;20127;-58
2022/07/30 05:11:52;;;;;;;2.60;2.50;;;27.30;49.70;;;;;;5087921;28;20076;-58
2022/07/30 05:14:21;;;;;;;3.08;2.83;;;27.30;49.90;;;;;;5086594;28;20060;-58
2022/07/30 05:16:49;;;;;;;3.45;2.83;;;27.20;50.20;;;;;;5086920;28;20437;-58
2022/07/30 05:19:18;;;;;;;3.08;2.85;;;27.10;50.60;;;;;;5087904;28;20040;-60
2022/07/30 05:21:45;;;;;;;3.35;3.05;;;26.90;51.10;;;;;;5087846;28;20088;-60
2022/07/30 05:24:12;;;;;;;3.28;2.97;;;26.60;51.30;;;;;;5088470;28;20089;-60
2022/07/30 05:26:40;;;;;;;3.13;2.90;;;26.30;51.00;;;;;;5087393;28;20351;-60
2022/07/30 05:29:07;;;;;;;3.03;2.78;;;26.00;50.80;;;;;;5082954;28;20324;-59
2022/07/30 05:31:34;;;;;;;3.38;3.10;;;25.70;50.70;;;;;;5087519;28;20069;-59
2022/07/30 05:34:04;;;;;;;3.13;2.83;;;25.40;50.50;;;;;;5087562;28;20058;-60
2022/07/30 05:36:31;;;;;;;3.50;3.10;;;25.00;50.60;;;;;;5087143;28;20059;-59
2022/07/30 05:38:59;;;;;;;2.90;2.70;;;24.70;50.40;;;;;;5087005;28;20043;-60
2022/07/30 05:41:26;;;;;;;4.03;3.63;;;24.30;50.60;;;;;;5086213;28;20094;-59
2022/07/30 05:43:59;;;;;;;3.45;3.15;;;24.10;50.80;;;;;;5085527;28;20084;-60
2022/07/30 05:46:27;;;;;;;3.50;3.20;;;23.80;50.80;;;;;;5086228;28;20051;-59
2022/07/30 05:48:55;;;;;;;3.38;3.13;;;23.50;50.80;;;;;;5086233;28;20294;-60
2022/07/30 05:51:22;;;;;;;3.67;3.38;;;23.20;50.90;;;;;;5086109;28;20048;-60
2022/07/30 05:53:50;;;;;;;3.55;3.25;;;23.00;51.00;;;;;;5084065;28;20044;-59
2022/07/30 05:56:17;;;;;;;3.88;3.58;;;22.80;51.30;;;;;;5084737;28;20493;-59
2022/07/30 05:58:44;;;;;;;3.70;3.40;;;22.50;51.50;;;;;;5085570;28;20076;-59
2022/07/30 06:01:11;;;;;;;3.60;3.28;;;22.30;51.80;;;;;;5081222;28;20144;-60
2022/07/30 06:03:38;;;;;;;3.70;3.38;;;22.20;52.70;;;;;;5085776;28;20126;-60
2022/07/30 06:06:06;;;;;;;4.53;3.13;;;22.00;53.20;;;;;;5085756;28;20076;-58
2022/07/30 06:08:35;;;;;;;3.50;3.20;;;21.90;53.50;;;;;;5083929;28;20044;-57
2022/07/30 06:11:02;;;;;;;3.92;3.30;;;21.70;54.40;;;;;;5085749;28;20397;-57
2022/07/30 06:13:29;;;;;;;3.28;2.97;;;21.70;54.80;;;;;;5085389;28;20040;-60
2022/07/30 06:15:57;;;;;;;3.50;3.20;;;21.60;55.30;;;;;;5085139;28;20619;-60
2022/07/30 06:18:24;;;;;;;3.85;3.13;;;21.60;55.60;;;;;;5085350;28;20073;-59
2022/07/30 06:20:53;;;;;;;3.75;3.08;;;21.50;55.70;;;;;;5086104;28;20257;-60
2022/07/30 06:23:21;;;;;;;3.65;3.35;;;21.50;56.40;;;;;;5085449;28;20040;-60
2022/07/30 06:25:49;;;;;;;3.60;3.30;;;21.40;56.50;;;;;;5085550;28;20052;-60
2022/07/30 06:28:17;;;;;;;3.13;2.92;;;21.40;56.60;;;;;;5084862;28;20520;-60
2022/07/30 06:31:05;;;;;;;3.38;3.17;;;21.40;56.50;;;;;;5083957;28;20102;-60
2022/07/30 06:33:32;;;;;;;3.00;2.80;;;21.40;57.20;;;;;;5082066;28;20055;-60
2022/07/30 06:35:59;;;;;;;3.22;2.95;;;21.40;57.30;;;;;;5085710;28;20054;-60
2022/07/30 06:38:27;;;;;;;3.10;2.80;;;21.40;57.50;;;;;;5085286;28;20087;-60
2022/07/30 06:40:56;;;;;;;4.38;3.55;;;21.40;57.50;;;;;;5085388;28;20105;-60
2022/07/30 06:43:28;;;;;;;3.00;2.70;;;21.30;57.80;;;;;;5084958;28;20036;-60
2022/07/30 06:45:55;;;;;;;3.65;3.00;;;21.30;57.50;;;;;;5085369;28;20500;-60
2022/07/30 06:48:23;;;;;;;3.22;2.85;;;21.30;57.80;;;;;;5084728;28;20527;-63
2022/07/30 06:50:50;;;;;;;3.67;3.03;;;21.20;57.70;;;;;;5085031;28;20093;-60
2022/07/30 06:53:17;;;;;;;3.15;2.85;;;21.20;58.20;;;;;;5085146;28;20093;-59
2022/07/30 06:55:44;;;;;;;2.95;2.75;;;21.20;58.20;;;;;;5084968;28;20538;-60
2022/07/30 06:58:11;;;;;;;3.17;2.88;;;21.10;58.20;;;;;;5083705;28;20040;-60
2022/07/30 07:00:38;;;;;;;3.22;2.92;;;21.10;58.30;;;;;;5085470;28;20248;-60
2022/07/30 07:03:05;;;;;;;2.65;2.40;;;21.10;57.90;;;;;;5080444;28;20113;-60
2022/07/30 07:05:37;;;;;;;3.47;3.17;;;21.10;57.80;;;;;;5084636;28;20420;-59
2022/07/30 07:08:05;;;;;;;2.90;2.67;;;21.00;57.80;;;;;;5085109;28;20101;-60
2022/07/30 07:10:32;;;;;;;3.25;2.95;;;21.00;57.90;;;;;;5084562;28;20512;-60
2022/07/30 07:12:59;;;;;;;3.38;2.83;;;20.90;57.90;;;;;;5084196;28;20524;-59
2022/07/30 07:15:26;;;;;;;3.50;2.78;;;20.90;57.50;;;;;;5085004;28;20109;-59
2022/07/30 07:18:03;;;;;;;5.60;3.03;;;20.80;57.60;;;;;;5084858;28;20048;-60
2022/07/30 07:20:31;;;;;;;4.70;3.45;;;20.80;57.80;;;;;;5084982;28;20055;-60
2022/07/30 07:22:59;;;;;;;2.97;2.40;;;20.80;57.40;;;;;;5084478;28;20085;-60
2022/07/30 07:25:34;;;;;;;2.90;2.60;;;20.80;57.00;;;;;;5084978;28;20063;-59
2022/07/30 07:28:02;;;;;;;2.72;2.22;;;20.70;56.70;;;;;;5085007;28;20079;-60
2022/07/30 07:30:40;;;;;;;2.15;2.05;;;20.60;56.80;;;;;;5086698;28;20047;-60
2022/07/30 07:33:08;;;;;;;5.55;2.53;;;20.50;57.10;;;;;;5088914;28;20044;-59
2022/07/30 07:35:36;;;;;;;2.78;2.55;;;20.50;56.80;;;;;;5083494;28;20139;-59
2022/07/30 07:38:15;;;;;;;2.70;2.50;;;20.40;57.30;;;;;;5088212;28;20515;-59
2022/07/30 07:40:42;;;;;;;3.72;2.75;;;20.40;57.00;;;;;;5088304;28;20056;-59
2022/07/30 07:43:09;;;;;;;3.15;2.88;;;20.30;57.30;;;;;;5088595;28;20040;-60
2022/07/30 07:45:36;;;;;;;2.83;2.63;;;20.30;57.40;;;;;;5088431;28;20129;-59
2022/07/30 07:48:04;;;;;;;6.50;2.40;;;20.20;58.20;;;;;;5088231;28;20075;-60
2022/07/30 07:50:31;;;;;;;3.38;2.90;;;20.20;58.30;;;;;;5088136;28;20074;-60
2022/07/30 07:52:59;;;;;;;4.18;2.90;;;20.20;58.00;;;;;;5087737;28;20684;-60
2022/07/30 07:55:26;;;;;;;2.60;2.40;;;20.10;58.20;;;;;;5088119;28;20512;-60
2022/07/30 07:57:53;;;;;;;2.97;2.47;;;20.00;58.20;;;;;;5086971;28;20055;-60
2022/07/30 08:00:22;;;;;;;2.83;2.50;;;20.00;58.50;;;;;;5087921;28;20075;-60
2022/07/30 08:02:49;;;;;;;3.63;2.92;;;19.90;57.90;;;;;;5088149;28;20044;-58
2022/07/30 08:05:16;;;;;;;4.22;3.00;;;19.90;58.30;;;;;;5088293;28;20101;-58
2022/07/30 08:07:44;;;;;;;2.47;2.28;;;19.80;58.20;;;;;;5083027;28;20144;-58
2022/07/30 08:10:13;;;;;;;3.40;3.10;;;19.80;58.40;;;;;;5087989;28;20435;-57
2022/07/30 08:12:41;;;;;;;4.40;3.03;;;19.80;58.60;;;;;;5087323;28;20439;-58
2022/07/30 08:15:09;;;;;;;3.53;2.60;;;19.80;58.40;;;;;;5088311;28;20093;-58
2022/07/30 08:17:43;;;;;;;2.63;2.42;;;19.80;58.90;;;;;;5087476;28;20135;-58
2022/07/30 08:20:12;;;;;;;2.90;2.70;;;19.80;58.40;;;;;;5087822;28;20451;-58
2022/07/30 08:22:41;;;;;;;4.22;3.22;;;19.80;58.70;;;;;;5087393;28;20075;-58
2022/07/30 08:25:09;;;;;;;3.03;2.72;;;19.80;58.70;;;;;;5087563;28;20052;-58
2022/07/30 08:27:36;;;;;;;3.33;2.78;;;19.80;59.20;;;;;;5086884;28;20105;-58
2022/07/30 08:30:07;;;;;;;6.63;3.00;;;19.70;59.00;;;;;;5087099;28;20047;-57
2022/07/30 08:32:35;;;;;;;3.28;2.70;;;19.80;58.80;;;;;;5087456;28;20086;-57
2022/07/30 08:35:03;;;;;;;7.20;3.85;;;19.80;59.60;;;;;;5087699;28;20463;-57
2022/07/30 08:37:31;;;;;;;3.50;3.20;;;19.90;59.60;;;;;;5085185;28;20052;-58
2022/07/30 08:39:59;;;;;;;2.90;2.70;;;19.90;59.20;;;;;;5084922;28;20311;-58
2022/07/30 08:42:26;;;;;;;2.95;2.75;;;19.90;58.80;;;;;;5086775;28;20592;-57
2022/07/30 08:44:54;;;;;;;2.95;2.75;;;20.00;58.80;;;;;;5086134;28;20466;-57
2022/07/30 08:47:29;;;;;;;3.17;2.97;;;19.90;58.70;;;;;;5087189;28;20044;-58
2022/07/30 08:50:03;;;;;;;3.08;2.47;;;19.90;59.00;;;;;;5087040;28;20123;-57
2022/07/30 08:52:32;;;;;;;4.20;2.90;;;19.90;59.10;;;;;;5087329;28;20087;-58
2022/07/30 08:55:00;;;;;;;2.83;2.63;;;19.90;58.70;;;;;;5087052;28;20040;-57
2022/07/30 08:57:33;;;;;;;3.00;2.80;;;19.90;59.30;;;;;;5086901;28;20056;-57
2022/07/30 09:00:00;;;;;;;3.97;3.10;;;19.90;58.80;;;;;;5087176;28;20044;-57
2022/07/30 09:02:30;;;;;;;3.28;2.97;;;19.80;58.30;;;;;;5086442;28;20504;-57
2022/07/30 09:04:58;;;;;;;2.80;2.60;;;19.90;58.70;;;;;;5087353;28;20649;-58
2022/07/30 09:07:25;;;;;;;3.35;2.92;;;19.90;58.70;;;;;;5086148;28;20672;-57
2022/07/30 09:09:52;;;;;;;3.00;2.70;;;19.80;58.90;;;;;;5082566;28;20121;-57
2022/07/30 09:12:39;;;;;;;3.50;3.20;;;19.90;58.90;;;;;;5085651;28;20067;-58
2022/07/30 09:15:14;;;;;;;3.42;3.17;;;19.90;58.60;;;;;;5087481;28;20306;-57
2022/07/30 09:17:59;;;;;;;3.38;3.08;;;19.90;58.90;;;;;;5086464;28;20052;-58
2022/07/30 09:20:35;;;;;;;3.20;2.90;;;19.90;58.50;;;;;;5086459;28;20485;-57
2022/07/30 09:23:04;;;;;;;3.00;2.80;;;19.90;59.50;;;;;;5086558;28;20063;-57
2022/07/30 09:25:40;;;;;;;3.00;2.80;;;19.90;58.90;;;;;;5084976;28;20079;-58
2022/07/30 09:28:09;;;;;;;2.83;2.63;;;19.90;59.10;;;;;;5087095;28;20393;-58
2022/07/30 09:30:52;;;;;;;3.03;2.83;;;20.00;59.70;;;;;;5086006;28;20051;-57
2022/07/30 09:33:38;;;;;;;2.60;2.40;;;20.00;59.50;;;;;;5086432;28;20297;-58
2022/07/30 09:36:10;;;;;;;3.00;2.70;;;20.00;59.30;;;;;;5084831;28;20755;-58
2022/07/30 09:38:47;;;;;;;2.92;2.70;;;20.00;59.90;;;;;;5085285;28;20081;-58
2022/07/30 09:41:16;;;;;;;3.33;2.60;;;20.10;59.90;;;;;;5081736;28;20489;-58
2022/07/30 09:44:05;;;;;;;2.88;2.67;;;20.00;59.80;;;;;;5085794;28;20040;-59
2022/07/30 09:46:46;;;;;;;2.67;2.47;;;20.10;59.90;;;;;;5086390;28;20560;-58
2022/07/30 09:49:16;;;;;;;3.65;2.67;;;20.10;59.90;;;;;;5086228;28;20066;-58
2022/07/30 09:51:44;;;;;;;2.70;2.50;;;20.10;60.50;;;;;;5085894;28;20239;-58
2022/07/30 09:54:24;;;;;;;3.35;2.53;;;20.20;60.40;;;;;;5085706;28;20058;-58
2022/07/30 09:57:06;;;;;;;2.55;2.35;;;20.20;60.40;;;;;;5085634;28;20138;-59
2022/07/30 09:59:53;;;;;;;2.30;2.10;;;20.20;60.00;;;;;;5086221;28;20400;-58
2022/07/30 10:02:27;;;;;;;2.67;2.47;;;20.30;60.40;;;;;;5085812;28;20052;-58
2022/07/30 10:05:12;;;;;;;2.75;2.55;;;20.30;60.40;;;;;;5085933;28;20275;-58
2022/07/30 10:08:01;;;;;;;3.63;2.17;;;20.40;60.10;;;;;;5084918;28;20063;-58
2022/07/30 10:10:44;;;;;;;2.58;2.38;;;20.40;59.90;;;;;;5085989;28;20052;-58
2022/07/30 10:13:13;;;;;;;;;;;20.40;60.50;;;;;;5081228;28;20048;-58
2022/07/30 10:15:49;;;;;;;2.97;2.13;;;20.40;59.90;;;;;;5085762;28;19924;-58
2022/07/30 10:18:16;;;;;;;2.60;2.40;;;20.50;60.10;;;;;;5085826;28;20248;-58
2022/07/30 10:20:44;;;;;;;2.92;2.05;;;20.50;60.10;;;;;;5085472;28;20040;-59
2022/07/30 10:23:12;;;;;;;3.45;2.13;;;20.50;60.10;;;;;;5085563;28;20044;-58
2022/07/30 10:25:43;;;;;;;2.00;1.73;;;20.60;60.20;;;;;;5084681;28;20044;-58
2022/07/30 10:28:22;;;;;;;2.25;2.05;;;20.60;59.90;;;;;;5084302;28;20511;-59
2022/07/30 10:30:52;;;;;;;2.10;1.80;;;20.60;60.00;;;;;;5084951;28;20075;-58
2022/07/30 10:33:25;;;;;;;2.28;1.95;;;20.60;59.60;;;;;;5085031;28;20044;-59
2022/07/30 10:36:04;;;;;;;1.77;1.67;;;20.60;60.10;;;;;;5084185;28;20101;-58
2022/07/30 10:38:36;;;;;;;1.45;1.35;;;20.60;59.70;;;;;;5084831;28;20052;-58
2022/07/30 10:41:23;;;;;;;1.90;1.65;;;20.60;59.80;;;;;;5085754;28;20158;-58
2022/07/30 10:44:30;;;;;;;1.33;1.33;;;20.50;59.30;;;;;;5083893;28;20043;-58
2022/07/30 10:47:06;;;;;;;1.77;1.67;;;20.50;59.40;;;;;;5085516;28;20054;-58
2022/07/30 10:49:36;;;;;;;1.70;1.60;;;20.50;59.80;;;;;;5084627;28;20068;-58
2022/07/30 10:52:10;;;;;;;1.80;1.70;;;20.50;59.20;;;;;;5085450;28;20135;-58
2022/07/30 10:54:43;;;;;;;1.45;1.35;;;20.50;59.50;;;;;;5083610;28;20489;-58
2022/07/30 10:57:17;;;;;;;1.50;1.27;;;20.60;59.60;;;;;;5084558;28;20490;-58
2022/07/30 11:00:10;;;;;;;3.20;1.50;;;20.60;59.60;;;;;;5084899;28;20044;-58
2022/07/30 11:02:39;;;;;;;2.03;1.50;;;20.60;58.80;;;;;;5083563;28;20079;-58
2022/07/30 11:05:22;;;;;;;1.90;1.75;;;20.60;59.10;;;;;;5088491;28;20075;-58
2022/07/30 11:08:37;;;;;;;1.60;1.50;;;20.70;58.80;;;;;;5088632;28;20046;-58
2022/07/30 11:11:47;;;;;;;1.38;1.38;;;20.70;58.60;;;;;;5089838;28;20044;-58
2022/07/30 11:14:54;;;;;;;1.60;1.33;;;20.70;58.90;;;;;;5067739;28;20041;-58
2022/07/30 11:17:22;;;;;;;1.63;1.53;;;20.70;58.30;;;;;;5063674;28;20079;-58
2022/07/30 11:20:10;;;;;;;1.40;1.30;;;20.70;58.90;;;;;;5068096;28;20285;-58
2022/07/30 11:22:40;;;;;;;1.40;1.30;;;20.70;58.30;;;;;;5068950;28;20103;-58
2022/07/30 11:25:10;;;;;;;1.10;1.10;;;20.70;58.60;;;;;;5068876;28;20041;-58
2022/07/30 11:27:47;;;;;;;1.80;1.38;;;20.70;58.80;;;;;;5068200;28;20544;-58
2022/07/30 11:30:34;;;;;;;1.23;1.23;;;20.70;58.80;;;;;;5067502;28;20045;-58
2022/07/30 11:33:22;;;;;;;1.40;1.25;;;20.80;58.20;;;;;;5067443;28;20523;-58
2022/07/30 11:36:11;;;;;;;1.10;1.08;;;20.80;58.50;;;;;;5055691;28;20084;-58
2022/07/30 11:38:56;;;;;;;1.55;1.17;;;20.80;58.10;;;;;;5067683;28;20132;-58
2022/07/30 11:41:31;;;;;;;1.35;1.25;;;20.90;58.40;;;;;;5069163;28;20068;-58
2022/07/30 11:44:26;;;;;;;1.00;1.00;;;20.80;58.50;;;;;;5067971;28;20044;-58
2022/07/30 11:46:53;;;;;;;1.20;1.20;;;20.80;58.10;;;;;;5067773;28;20128;-58
2022/07/30 11:49:20;;;;;;;1.20;1.08;;;20.80;58.80;;;;;;5063261;28;20523;-58
2022/07/30 11:51:48;;;;;;;1.20;1.10;;;20.80;58.90;;;;;;5068189;28;20348;-58
2022/07/30 11:54:17;;;;;;;1.10;1.00;;;20.80;58.40;;;;;;5068820;28;20049;-58
2022/07/30 11:56:52;;;;;;;1.80;1.70;;;20.80;58.70;;;;;;5066655;28;20045;-58
2022/07/30 11:59:19;;;;;;;1.10;1.10;;;20.90;58.80;;;;;;5068180;28;20045;-58
2022/07/30 12:02:00;;;;;;;1.45;1.35;;;20.90;58.50;;;;;;5066762;28;20056;-58
2022/07/30 12:04:28;;;;;;;1.00;1.00;;;20.90;58.30;;;;;;5067691;28;20132;-58
2022/07/30 12:06:55;;;;;;;1.10;1.10;;;20.90;58.60;;;;;;5067642;28;20106;-58
2022/07/30 12:09:27;;;;;;;1.00;0.93;;;20.90;58.90;;;;;;5067102;28;20571;-58
2022/07/30 12:11:56;;;;;;;0.90;0.90;;;20.90;58.80;;;;;;5068176;28;20117;-58
2022/07/30 12:14:23;;;;;;;1.05;1.02;;;21.00;58.70;;;;;;5088071;28;20044;-58
2022/07/30 12:16:52;;;;;;;0.70;0.70;;;21.00;58.70;;;;;;5087730;28;20650;-58
2022/07/30 12:19:20;;;;;;;1.05;1.05;;;21.00;58.60;;;;;;5084189;28;20048;-58
2022/07/30 12:21:47;;;;;;;1.00;1.00;;;21.00;58.70;;;;;;5085826;28;20666;-58
2022/07/30 12:24:25;;;;;;;1.23;1.13;;;21.10;58.70;;;;;;5088282;28;20132;-58
2022/07/30 12:27:02;;;;;;;1.95;1.02;;;21.10;58.40;;;;;;5087573;28;20114;-58
2022/07/30 12:29:34;;;;;;;1.08;1.02;;;21.10;58.70;;;;;;5087635;28;20492;-58
2022/07/30 12:32:01;;;;;;;1.33;0.95;;;21.20;58.70;;;;;;5087383;28;20044;-58
2022/07/30 12:34:28;;;;;;;1.73;1.13;;;21.20;58.90;;;;;;5086142;28;20404;-58
2022/07/30 12:37:06;;;;;;;1.10;1.00;;;21.20;58.90;;;;;;5087336;28;20082;-59
2022/07/30 12:39:34;;;;;;;1.20;1.20;;;21.20;59.10;;;;;;5087061;28;20044;-58
2022/07/30 12:42:02;;;;;;;1.20;1.10;;;21.20;59.50;;;;;;5087436;28;20569;-58
2022/07/30 12:44:40;;;;;;;1.15;1.05;;;21.20;59.30;;;;;;5087166;28;20048;-58
2022/07/30 12:47:27;;;;;;;0.73;0.68;;;21.30;59.60;;;;;;5087416;28;20056;-59
2022/07/30 12:49:59;;;;;;;1.10;1.10;;;21.30;59.60;;;;;;5086871;28;20048;-58
2022/07/30 12:52:32;;;;;;;0.88;0.80;;;21.40;59.90;;;;;;5082469;28;20507;-58
2022/07/30 12:55:10;;;;;;;1.08;1.08;;;21.50;59.60;;;;;;5087071;28;20044;-58
2022/07/30 12:57:58;;;;;;;0.80;0.80;;;21.50;59.60;;;;;;5086852;28;20106;-58
2022/07/30 13:00:51;;;;;;;1.00;1.00;;;21.50;59.40;;;;;;5087548;28;20040;-58
2022/07/30 13:03:26;;;;;;;0.95;0.95;;;21.60;59.30;;;;;;5086771;28;20062;-58
2022/07/30 13:05:55;;;;;;;1.30;0.98;;;21.60;59.20;;;;;;5085482;28;20056;-58
2022/07/30 13:08:53;;;;;;;0.73;0.73;;;21.60;59.00;;;;;;5087208;28;20206;-58
2022/07/30 13:11:23;;;;;;;1.08;1.08;;;21.70;59.00;;;;;;5086341;28;20075;-58